Time;durP1;ratioP1;P1;durP2;ratioP2;P2;SDS_P1;SDS_P2;PMS_P1;PMS_P2;Temp;Humidity;BMP_temperature;BMP_pressure;BME280_temperature;BME280_humidity;BME280_pressure;Samples;Min_cycle;Max_cycle;Signal;HPM_P1;HPM_P2
2023/06/04 00:01:55;;;;;;;6.47;2.23;;;;;;;16.89;41.62;101981.13;5172010;28;20497;-82
2023/06/04 00:04:26;;;;;;;4.07;2.20;;;;;;;16.89;41.24;101967.88;5167090;28;20035;-82
2023/06/04 00:06:57;;;;;;;4.53;2.37;;;;;;;16.98;41.95;101977.84;5168454;28;20464;-82
2023/06/04 00:09:29;;;;;;;5.23;2.60;;;;;;;17.20;41.73;102001.97;5188721;28;20039;-83
2023/06/04 00:12:00;;;;;;;5.77;2.70;;;;;;;16.93;42.07;101986.09;5173500;28;20027;-83
2023/06/04 00:14:32;;;;;;;4.27;2.47;;;;;;;17.07;42.52;102001.97;5177741;28;20054;-83
2023/06/04 00:17:03;;;;;;;5.13;2.40;;;;;;;16.96;42.24;101976.25;5171908;28;20109;-83
2023/06/04 00:19:35;;;;;;;8.10;2.50;;;;;;;16.69;44.13;101976.25;5172435;28;20035;-83
2023/06/04 00:22:07;;;;;;;5.17;2.03;;;;;;;16.60;44.48;101990.06;5179899;28;20422;-82
2023/06/04 00:24:41;;;;;;;8.10;2.40;;;;;;;16.57;44.14;101964.72;5171719;28;20041;-83
2023/06/04 00:27:16;;;;;;;6.87;3.30;;;;;;;16.72;43.41;101955.84;5173039;28;20023;-83
2023/06/04 00:29:48;;;;;;;4.53;2.47;;;;;;;16.35;45.40;101975.88;5167967;28;20137;-82
2023/06/04 00:32:21;;;;;;;4.37;2.20;;;;;;;16.65;44.77;102017.06;5167023;28;20545;-80
2023/06/04 00:34:57;;;;;;;4.27;2.10;;;;;;;16.63;43.99;101975.81;5157632;28;20039;-81
2023/06/04 00:37:29;;;;;;;5.20;2.67;;;;;;;16.65;44.68;102001.19;5169948;28;20422;-81
2023/06/04 00:40:01;;;;;;;6.10;2.30;;;;;;;16.12;45.50;101967.69;5185990;28;20022;-82
2023/06/04 00:42:32;;;;;;;5.20;2.33;;;;;;;16.35;45.15;101967.94;5185510;28;20031;-83
2023/06/04 00:45:09;;;;;;;10.70;2.23;;;;;;;16.45;45.57;101990.19;5175629;28;20106;-80
2023/06/04 00:47:41;;;;;;;6.27;2.73;;;;;;;16.46;45.78;101998.94;5173356;28;20468;-79
2023/06/04 00:50:13;;;;;;;4.70;2.63;;;;;;;16.52;45.25;101982.69;5188117;28;20046;-80
2023/06/04 00:52:44;;;;;;;4.87;2.53;;;;;;;16.21;45.65;101943.25;5178617;28;20057;-79
2023/06/04 00:55:18;;;;;;;5.03;2.57;;;;;;;16.26;46.74;101987.91;5176239;28;20034;-80
2023/06/04 00:57:55;;;;;;;6.32;2.40;;;;;;;16.50;45.68;101978.44;5180682;28;20030;-80
2023/06/04 01:00:26;;;;;;;4.17;2.00;;;;;;;16.06;46.75;101954.84;5182813;28;20410;-81
2023/06/04 01:03:03;;;;;;;4.73;2.43;;;;;;;15.96;47.63;101962.50;5182269;28;20084;-81
2023/06/04 01:05:43;;;;;;;4.50;2.00;;;;;;;16.43;46.55;102005.28;5171623;28;20031;-79
2023/06/04 01:08:15;;;;;;;3.67;2.17;;;;;;;15.96;46.77;101941.38;5156077;28;20325;-81
2023/06/04 01:10:53;;;;;;;5.30;1.67;;;;;;;16.29;47.80;102011.50;5170847;28;20100;-82
2023/06/04 01:13:26;;;;;;;3.13;1.77;;;;;;;16.04;48.19;102014.91;5170595;28;20035;-81
2023/06/04 01:15:59;;;;;;;6.80;2.70;;;;;;;15.88;48.35;101989.44;5197186;28;20030;-80
2023/06/04 01:18:36;;;;;;;3.87;2.20;;;;;;;16.24;47.72;102018.03;5152772;28;20023;-80
2023/06/04 01:21:12;;;;;;;3.80;1.83;;;;;;;16.15;47.75;102022.09;5170586;28;20027;-80
2023/06/04 01:23:58;;;;;;;7.47;2.20;;;;;;;16.01;48.13;102005.38;5171693;28;20026;-81
2023/06/04 01:26:31;;;;;;;8.27;2.17;;;;;;;15.67;49.11;101966.09;5192135;28;20021;-80
2023/06/04 01:29:02;;;;;;;4.03;1.93;;;;;;;15.45;49.96;101972.72;5274566;28;20353;-81
2023/06/04 01:31:34;;;;;;;6.40;2.10;;;;;;;15.59;48.92;101958.66;5258868;28;20039;-80
2023/06/04 01:34:08;;;;;;;4.23;1.87;;;;;;;15.77;49.99;102018.31;5176335;28;20061;-80
2023/06/04 01:36:39;;;;;;;4.72;1.80;;;;;;;15.69;49.12;101971.28;5169322;28;20031;-80
2023/06/04 01:39:10;;;;;;;1.83;1.40;;;;;;;15.72;49.82;102001.00;5169932;28;20077;-81
2023/06/04 01:41:43;;;;;;;5.10;1.93;;;;;;;15.54;50.16;101988.91;5170484;28;20033;-80
2023/06/04 01:44:15;;;;;;;3.93;1.73;;;;;;;15.65;49.47;101977.69;5136333;28;20504;-80
2023/06/04 01:46:46;;;;;;;6.83;2.03;;;;;;;15.27;51.11;101982.66;5168517;28;20031;-80
2023/06/04 01:49:18;;;;;;;7.97;2.03;;;;;;;15.38;51.13;101984.59;5169233;28;20482;-81
2023/06/04 01:51:49;;;;;;;3.13;1.70;;;;;;;15.39;50.79;101959.06;5253430;28;20085;-80
2023/06/04 01:54:20;;;;;;;4.43;2.17;;;;;;;15.55;50.33;101983.53;5170998;28;20018;-80
2023/06/04 01:56:52;;;;;;;4.30;1.63;;;;;;;15.22;51.71;101971.53;5170367;28;20027;-80
2023/06/04 01:59:23;;;;;;;6.13;2.00;;;;;;;15.22;52.96;101998.75;5169470;28;20027;-81
2023/06/04 02:01:54;;;;;;;4.27;2.10;;;;;;;15.18;52.07;101980.56;5172611;28;20539;-80
2023/06/04 02:04:26;;;;;;;6.33;2.27;;;;;;;15.30;51.31;101976.31;5168472;28;20050;-80
2023/06/04 02:06:59;;;;;;;4.57;2.30;;;;;;;15.20;52.10;101983.97;5169778;28;20034;-80
2023/06/04 02:09:30;;;;;;;3.57;1.97;;;;;;;15.11;53.46;102017.88;5169601;28;20031;-81
2023/06/04 02:12:02;;;;;;;6.60;1.90;;;;;;;15.20;52.31;101986.59;5184347;28;20434;-81
2023/06/04 02:14:33;;;;;;;6.10;2.07;;;;;;;15.20;52.52;102000.63;5274593;28;20078;-81
2023/06/04 02:17:12;;;;;;;6.63;2.03;;;;;;;15.39;51.69;101994.25;5217807;28;20352;-80
2023/06/04 02:19:45;;;;;;;3.50;1.80;;;;;;;15.00;53.76;102000.06;5169935;28;20027;-80
2023/06/04 02:22:20;;;;;;;6.03;1.93;;;;;;;15.17;51.82;101955.13;5160719;28;20456;-79
2023/06/04 02:24:51;;;;;;;5.37;1.73;;;;;;;14.90;53.03;101948.81;5226968;28;20026;-79
2023/06/04 02:27:23;;;;;;;8.90;2.27;;;;;;;14.99;52.51;101940.31;5171067;28;20023;-79
2023/06/04 02:29:54;;;;;;;4.70;2.43;;;;;;;15.20;52.32;101971.59;5252730;28;20043;-80
2023/06/04 02:32:25;;;;;;;4.40;2.17;;;;;;;15.03;53.88;102008.75;5154013;28;20026;-79
2023/06/04 02:34:57;;;;;;;5.37;2.13;;;;;;;14.90;54.03;101993.66;5169536;28;20023;-80
2023/06/04 02:37:28;;;;;;;6.77;2.23;;;;;;;14.54;55.02;101971.16;5175617;28;20037;-79
2023/06/04 02:40:01;;;;;;;9.10;2.10;;;;;;;14.82;54.30;101998.56;5187623;28;20034;-79
2023/06/04 02:42:33;;;;;;;2.90;1.83;;;;;;;14.59;54.46;101963.81;5246729;28;20035;-81
2023/06/04 02:45:05;;;;;;;9.47;2.10;;;;;;;14.74;55.42;102014.78;5171153;28;20037;-81
2023/06/04 02:47:37;;;;;;;7.50;2.30;;;;;;;14.77;54.38;101982.94;5174459;28;20120;-81
2023/06/04 02:50:09;;;;;;;9.67;2.23;;;;;;;14.71;54.88;101983.31;5172485;28;20030;-80
2023/06/04 02:52:41;;;;;;;5.43;2.23;;;;;;;14.73;54.28;101987.56;5166317;28;20042;-81
2023/06/04 02:55:13;;;;;;;9.43;2.10;;;;;;;14.36;55.63;101958.09;5170918;28;20046;-80
2023/06/04 02:57:44;;;;;;;7.93;2.40;;;;;;;14.52;55.14;101969.44;5170871;28;20081;-80
2023/06/04 03:00:16;;;;;;;8.53;2.93;;;;;;;14.35;55.80;101966.94;5193997;28;20112;-79
2023/06/04 03:02:48;;;;;;;8.77;2.40;;;;;;;14.36;55.72;101964.22;5223243;28;20050;-79
2023/06/04 03:05:20;;;;;;;7.27;2.07;;;;;;;14.60;54.72;101982.16;5238610;28;20560;-80
2023/06/04 03:07:51;;;;;;;4.33;1.90;;;;;;;14.47;55.58;101997.00;5187715;28;20038;-80
2023/06/04 03:10:22;;;;;;;8.37;2.17;;;;;;;14.52;55.04;101985.25;5201483;28;20103;-80
2023/06/04 03:12:54;;;;;;;8.27;2.70;;;;;;;14.45;55.55;101981.25;5228878;28;20565;-79
2023/06/04 03:15:26;;;;;;;3.97;2.07;;;;;;;14.52;55.57;101984.41;5173794;28;20042;-79
2023/06/04 03:17:57;;;;;;;6.93;2.20;;;;;;;14.54;54.83;101969.34;5173459;28;20084;-81
2023/06/04 03:20:28;;;;;;;5.90;2.60;;;;;;;14.45;54.79;101951.44;5173371;28;20474;-79
2023/06/04 03:23:00;;;;;;;5.60;2.00;;;;;;;14.10;57.23;101968.34;5174203;28;20100;-80
2023/06/04 03:25:31;;;;;;;4.60;2.10;;;;;;;14.14;56.54;101957.56;5249230;28;20472;-80
2023/06/04 03:28:03;;;;;;;8.07;3.03;;;;;;;14.58;55.49;101988.47;5181145;28;20046;-79
2023/06/04 03:30:35;;;;;;;4.07;2.20;;;;;;;14.49;55.56;101974.03;5173487;28;20504;-79
2023/06/04 03:33:07;;;;;;;7.57;2.27;;;;;;;14.44;56.44;101990.13;5173139;28;20038;-81
2023/06/04 03:35:41;;;;;;;6.93;2.47;;;;;;;14.11;57.82;101975.31;5172746;28;20119;-80
2023/06/04 03:38:12;;;;;;;5.63;2.17;;;;;;;14.11;58.11;101975.31;5172985;28;20061;-79
2023/06/04 03:40:45;;;;;;;14.37;2.43;;;;;;;13.98;59.27;101996.25;5172488;28;20467;-80
2023/06/04 03:43:17;;;;;;;4.30;2.50;;;;;;;14.15;57.33;101971.56;5222747;28;20160;-79
2023/06/04 03:45:48;;;;;;;4.77;2.50;;;;;;;14.11;57.57;101964.78;5175407;28;20113;-80
2023/06/04 03:48:19;;;;;;;6.50;2.30;;;;;;;13.87;58.30;101958.19;5159278;28;20177;-79
2023/06/04 03:50:51;;;;;;;8.67;2.47;;;;;;;14.01;57.98;101965.31;5172321;28;20105;-80
2023/06/04 03:53:22;;;;;;;7.30;2.47;;;;;;;14.06;57.47;101975.59;5171684;28;20027;-80
2023/06/04 03:56:03;;;;;;;2.73;1.87;;;;;;;14.30;56.38;101975.09;5172334;28;20023;-79
2023/06/04 03:58:37;;;;;;;5.80;2.37;;;;;;;14.13;58.10;101978.72;5171901;28;20030;-79
2023/06/04 04:01:10;;;;;;;;;;;;;;;15.11;52.64;102011.75;5242769;28;20104;-80
2023/06/04 04:03:42;;;;;;;6.13;2.10;;;;;;;14.10;58.86;102006.06;5199146;28;19916;-80
2023/06/04 04:06:14;;;;;;;6.30;2.53;;;;;;;14.28;56.99;101983.09;5171892;28;20011;-80
2023/06/04 04:08:45;;;;;;;7.13;2.30;;;;;;;14.12;57.59;101985.75;5171598;28;20091;-80
2023/06/04 04:11:17;;;;;;;5.80;2.43;;;;;;;14.36;56.67;101997.63;5171541;28;20136;-80
2023/06/04 04:13:48;;;;;;;6.77;2.27;;;;;;;13.94;58.18;101963.97;5170411;28;20558;-80
2023/06/04 04:16:19;;;;;;;5.10;2.73;;;;;;;13.82;58.63;101949.72;5171258;28;20630;-80
2023/06/04 04:18:51;;;;;;;7.20;2.53;;;;;;;14.04;58.67;101982.72;5158731;28;20031;-80
2023/06/04 04:21:23;;;;;;;5.33;2.50;;;;;;;13.97;58.54;101976.94;5151519;28;20047;-80
2023/06/04 04:23:54;;;;;;;4.00;2.17;;;;;;;13.99;58.20;101967.19;5153432;28;20490;-79
2023/06/04 04:26:27;;;;;;;5.37;2.43;;;;;;;13.96;58.97;101977.03;5154066;28;20096;-80
2023/06/04 04:28:59;;;;;;;5.10;2.27;;;;;;;13.74;60.15;101970.31;5170114;28;20035;-80
2023/06/04 04:31:31;;;;;;;3.40;2.40;;;;;;;13.93;59.43;101983.31;5153628;28;20023;-78
2023/06/04 04:34:08;;;;;;;3.70;2.50;;;;;;;13.90;59.59;101978.22;5168272;28;20468;-79
2023/06/04 04:36:40;;;;;;;3.20;2.40;;;;;;;14.06;59.52;102014.22;5133489;28;20492;-79
2023/06/04 04:39:11;;;;;;;4.87;2.37;;;;;;;14.07;58.57;101981.72;5151132;28;20058;-79
2023/06/04 04:41:43;;;;;;;3.80;2.53;;;;;;;13.91;60.54;101985.22;5150692;29;20078;-79
2023/06/04 04:44:14;;;;;;;3.63;2.37;;;;;;;13.76;60.59;101973.72;5150052;28;20038;-79
2023/06/04 04:46:45;;;;;;;7.83;2.30;;;;;;;13.73;60.63;101972.13;5134428;28;20031;-80
2023/06/04 04:49:17;;;;;;;5.00;2.23;;;;;;;13.99;59.22;101990.03;5135397;28;20027;-81
2023/06/04 04:51:48;;;;;;;6.30;3.20;;;;;;;14.13;58.57;101982.22;5151650;28;20042;-81
2023/06/04 04:54:20;;;;;;;4.57;2.20;;;;;;;14.15;57.68;101982.94;5135047;28;20019;-81
2023/06/04 04:56:51;;;;;;;7.30;2.40;;;;;;;14.14;59.55;102012.00;5134415;28;20072;-81
2023/06/04 04:59:22;;;;;;;5.27;2.03;;;;;;;13.96;59.94;101987.56;5149871;29;20165;-80
2023/06/04 05:01:54;;;;;;;5.83;2.50;;;;;;;14.39;59.08;102013.25;5150544;28;20035;-80
2023/06/04 05:04:25;;;;;;;5.27;2.90;;;;;;;14.06;58.99;101977.34;5133481;28;20427;-79
2023/06/04 05:06:56;;;;;;;5.80;2.40;;;;;;;14.43;58.64;102033.25;5149975;29;20053;-80
2023/06/04 05:09:28;;;;;;;5.20;2.60;;;;;;;14.19;58.50;101988.88;5151749;29;20031;-82
2023/06/04 05:12:00;;;;;;;4.37;2.47;;;;;;;13.98;60.68;101989.16;5150854;29;20030;-80
2023/06/04 05:14:31;;;;;;;5.13;2.63;;;;;;;14.46;58.19;102017.25;5151189;28;20055;-79
2023/06/04 05:17:03;;;;;;;6.00;2.40;;;;;;;14.50;58.34;102020.56;5134350;28;20081;-82
2023/06/04 05:19:34;;;;;;;4.30;2.47;;;;;;;14.31;58.50;101997.91;5155614;29;20039;-82
2023/06/04 05:22:06;;;;;;;4.70;2.07;;;;;;;14.44;59.15;102012.97;5156639;29;20042;-79
2023/06/04 05:24:38;;;;;;;7.93;3.80;;;;;;;14.43;58.16;102012.16;5150016;28;20035;-80
2023/06/04 05:27:09;;;;;;;4.30;2.37;;;;;;;14.38;59.36;102009.75;5153621;28;20032;-81
2023/06/04 05:29:41;;;;;;;7.77;4.33;;;;;;;14.59;57.90;102027.09;5153048;28;20027;-82
2023/06/04 05:32:13;;;;;;;5.20;2.23;;;;;;;14.78;57.78;102033.91;5152687;29;20020;-82
2023/06/04 05:34:44;;;;;;;6.40;2.60;;;;;;;14.55;57.84;102000.06;5133843;28;20099;-83
2023/06/04 05:37:18;;;;;;;8.27;2.57;;;;;;;14.49;58.46;102001.25;5151574;29;20035;-81
2023/06/04 05:39:50;;;;;;;3.45;2.30;;;;;;;14.64;57.22;101990.75;5150310;28;20042;-81
2023/06/04 05:42:21;;;;;;;6.23;2.37;;;;;;;14.45;58.33;101983.06;5157606;28;20075;-80
2023/06/04 05:44:53;;;;;;;5.10;2.30;;;;;;;14.77;58.37;102017.22;5170047;28;20031;-79
2023/06/04 05:47:24;;;;;;;3.17;2.30;;;;;;;14.73;57.37;101994.63;5169347;28;20582;-80
2023/06/04 05:49:56;;;;;;;2.90;2.07;;;;;;;14.69;57.86;101991.31;5169119;28;20050;-80
2023/06/04 05:52:27;;;;;;;4.13;2.60;;;;;;;14.87;56.61;101993.84;5168922;28;20039;-80
2023/06/04 05:54:58;;;;;;;8.23;2.97;;;;;;;14.85;57.40;101985.16;5169692;28;20140;-79
2023/06/04 05:57:30;;;;;;;6.30;2.53;;;;;;;15.08;57.93;102022.50;5169040;28;20369;-80
2023/06/04 06:00:06;;;;;;;4.03;2.67;;;;;;;14.99;57.42;101995.72;5153986;28;20050;-79
2023/06/04 06:02:40;;;;;;;8.40;2.77;;;;;;;15.02;55.74;101988.56;5169760;28;20066;-80
2023/06/04 06:05:12;;;;;;;4.47;2.33;;;;;;;15.36;56.19;102039.28;5169060;28;20037;-79
2023/06/04 06:07:44;;;;;;;4.37;2.50;;;;;;;15.17;57.47;102011.38;5169510;28;20363;-79
2023/06/04 06:10:16;;;;;;;11.40;3.00;;;;;;;15.05;56.81;101996.28;5168425;28;20425;-80
2023/06/04 06:12:47;;;;;;;6.23;2.57;;;;;;;15.25;56.00;102016.19;5168486;28;20031;-79
2023/06/04 06:15:18;;;;;;;4.77;2.90;;;;;;;15.28;56.80;102007.22;5169711;28;20039;-79
2023/06/04 06:17:50;;;;;;;7.27;2.53;;;;;;;15.52;56.14;102035.69;5169171;28;20326;-81
2023/06/04 06:20:21;;;;;;;5.77;2.97;;;;;;;15.56;54.58;102031.94;5170259;28;20059;-80
2023/06/04 06:22:53;;;;;;;5.53;2.83;;;;;;;15.62;54.36;102034.19;5169616;28;20157;-80
2023/06/04 06:25:24;;;;;;;10.27;2.60;;;;;;;15.34;53.98;101996.31;5170356;28;20148;-80
2023/06/04 06:27:56;;;;;;;7.87;2.80;;;;;;;15.79;54.58;102048.13;5168747;28;20023;-82
2023/06/04 06:30:27;;;;;;;4.07;1.97;;;;;;;15.63;53.79;102017.41;5169534;28;20053;-80
2023/06/04 06:32:58;;;;;;;6.43;3.27;;;;;;;16.00;53.07;102055.66;5169028;28;20055;-80
2023/06/04 06:35:30;;;;;;;5.77;3.00;;;;;;;15.88;53.85;102030.84;5152403;28;20026;-80
2023/06/04 06:38:01;;;;;;;6.83;3.07;;;;;;;15.99;53.38;102027.53;5170196;28;20030;-82
2023/06/04 06:40:33;;;;;;;6.43;2.83;;;;;;;16.03;52.12;102015.81;5168861;28;20037;-80
2023/06/04 06:43:04;;;;;;;5.13;2.70;;;;;;;16.22;51.48;102031.34;5171385;28;20103;-80
2023/06/04 06:45:36;;;;;;;6.97;2.43;;;;;;;16.40;51.22;102041.66;5173046;28;20518;-79
2023/06/04 06:48:08;;;;;;;5.47;2.67;;;;;;;16.44;50.62;102019.38;5170152;28;20030;-80
2023/06/04 06:50:39;;;;;;;3.67;2.67;;;;;;;16.81;49.83;102051.28;5154855;28;20033;-79
2023/06/04 06:53:10;;;;;;;5.07;2.53;;;;;;;16.76;48.58;102031.38;5171665;28;20110;-81
2023/06/04 06:55:41;;;;;;;4.67;2.73;;;;;;;17.07;48.75;102018.69;5173645;28;20023;-81
2023/06/04 06:58:13;;;;;;;5.10;3.10;;;;;;;17.37;47.06;102022.81;5155295;28;20051;-81
2023/06/04 07:00:45;;;;;;;4.40;2.97;;;;;;;17.70;45.65;102052.31;5163158;28;20032;-81
2023/06/04 07:03:16;;;;;;;6.90;2.83;;;;;;;17.88;45.43;102025.47;5162917;28;20019;-80
2023/06/04 07:05:48;;;;;;;4.27;2.50;;;;;;;18.10;44.47;102022.09;5172606;28;20711;-81
2023/06/04 07:08:21;;;;;;;4.10;2.73;;;;;;;18.62;44.25;102037.75;5173862;28;20023;-82
2023/06/04 07:10:52;;;;;;;5.23;2.43;;;;;;;18.93;42.39;102025.75;5173605;28;20030;-81
2023/06/04 07:13:23;;;;;;;4.73;2.60;;;;;;;19.55;41.26;102028.94;5173005;28;20031;-81
2023/06/04 07:15:55;;;;;;;7.63;2.70;;;;;;;19.79;39.97;102045.72;5173202;28;20065;-82
2023/06/04 07:18:26;;;;;;;11.13;3.93;;;;;;;20.36;38.58;102032.25;5172858;28;20111;-82
2023/06/04 07:20:58;;;;;;;5.57;2.37;;;;;;;21.02;38.13;102042.78;5173423;28;20547;-82
2023/06/04 07:23:29;;;;;;;5.57;2.43;;;;;;;21.35;36.23;102037.31;5155534;28;20031;-82
2023/06/04 07:26:01;;;;;;;6.77;2.93;;;;;;;21.99;35.36;102047.78;5155373;28;20035;-82
2023/06/04 07:28:32;;;;;;;6.43;3.03;;;;;;;22.54;35.08;102037.50;5171630;28;20031;-81
2023/06/04 07:31:03;;;;;;;4.47;2.27;;;;;;;22.88;34.29;102029.06;5152435;28;20031;-81
2023/06/04 07:33:42;;;;;;;4.30;2.17;;;;;;;23.85;33.17;102078.72;5135122;29;20160;-79
2023/06/04 07:36:26;;;;;;;5.88;2.55;;;;;;;24.11;31.84;102036.97;5150777;28;20043;-80
2023/06/04 07:38:58;;;;;;;3.22;2.03;;;;;;;25.12;30.31;102064.38;5151711;28;20563;-80
2023/06/04 07:41:29;;;;;;;3.42;2.20;;;;;;;25.11;30.25;102035.91;5151216;28;20065;-80
2023/06/04 07:44:01;;;;;;;4.38;2.60;;;;;;;25.30;29.34;102031.28;5162250;28;20117;-80
2023/06/04 07:46:32;;;;;;;4.72;2.40;;;;;;;25.90;28.28;102049.25;5172145;28;20109;-80
2023/06/04 07:49:03;;;;;;;4.70;2.17;;;;;;;26.69;27.46;102074.78;5154042;28;20602;-80
2023/06/04 07:51:35;;;;;;;3.95;2.35;;;;;;;26.77;26.79;102061.34;5172569;28;20023;-84
2023/06/04 07:54:06;;;;;;;9.32;2.15;;;;;;;27.02;26.17;102085.44;5173644;28;20421;-84
2023/06/04 07:57:16;;;;;;;5.75;2.28;;;;;;;28.16;26.48;102085.28;5172429;28;20094;-86
2023/06/04 07:59:49;;;;;;;5.57;2.35;;;;;;;27.16;25.04;102053.53;5172840;28;20076;-84
2023/06/04 08:02:20;;;;;;;5.65;2.03;;;;;;;27.60;24.54;102048.59;5156554;28;20030;-83
2023/06/04 08:04:52;;;;;;;3.45;2.13;;;;;;;27.67;25.12;102063.88;5155627;28;20072;-84
2023/06/04 08:07:23;;;;;;;4.22;2.20;;;;;;;28.17;24.25;102086.13;5172948;28;20076;-80
2023/06/04 08:09:56;;;;;;;4.75;1.90;;;;;;;28.56;23.47;102068.13;5173083;28;20035;-83
2023/06/04 08:12:27;;;;;;;5.07;1.90;;;;;;;28.46;23.27;102066.56;5154574;28;20031;-85
2023/06/04 08:15:05;;;;;;;4.20;2.40;;;;;;;29.52;23.36;102036.03;5159797;28;20066;-84
2023/06/04 08:17:37;;;;;;;4.78;2.33;;;;;;;29.19;23.36;102078.59;5236986;28;20040;-84
2023/06/04 08:20:11;;;;;;;4.25;2.17;;;;;;;30.17;22.35;102051.44;5237319;28;20029;-85
2023/06/04 08:22:44;;;;;;;3.95;1.95;;;;;;;30.28;20.87;102063.59;5237338;28;20499;-85
2023/06/04 08:25:15;;;;;;;3.65;1.85;;;;;;;30.56;20.66;102062.78;5237207;28;20036;-85
2023/06/04 08:27:47;;;;;;;7.35;2.25;;;;;;;30.48;20.43;102077.25;5236305;28;20025;-84
2023/06/04 08:30:18;;;;;;;4.88;2.22;;;;;;;30.41;20.48;102054.75;5235555;28;20549;-86
2023/06/04 08:32:52;;;;;;;3.35;1.58;;;;;;;30.70;19.67;102098.00;5238803;28;20044;-92
2023/06/04 08:35:28;;;;;;;4.38;1.90;;;;;;;31.02;19.50;102052.44;5239624;28;20366;-90
2023/06/04 08:38:00;;;;;;;4.97;2.03;;;;;;;31.55;19.26;102045.59;5239060;28;20029;-89
2023/06/04 08:40:31;;;;;;;3.35;1.50;;;;;;;31.86;19.34;102079.41;5236503;28;20025;-87
2023/06/04 08:43:04;;;;;;;4.22;1.77;;;;;;;32.37;18.14;102035.66;5237081;28;20109;-88
2023/06/04 08:45:42;;;;;;;5.07;1.33;;;;;;;32.81;18.61;102065.84;5238068;28;20075;-88
2023/06/04 08:48:20;;;;;;;3.60;1.27;;;;;;;32.54;17.68;102076.75;5237237;28;20056;-88
2023/06/04 08:50:53;;;;;;;3.92;1.30;;;;;;;32.41;17.21;102079.44;5237031;28;20678;-88
2023/06/04 08:53:24;;;;;;;5.70;1.38;;;;;;;33.05;16.73;102092.47;5238195;28;20025;-91
2023/06/04 08:55:57;;;;;;;1.95;1.00;;;;;;;32.99;16.27;102067.03;5237119;28;20108;-92
2023/06/04 08:58:35;;;;;;;2.17;1.38;;;;;;;33.42;16.59;102064.78;5240953;28;20049;-91
2023/06/04 09:01:07;;;;;;;4.28;1.30;;;;;;;33.31;16.60;102099.72;5215909;28;20111;-90
2023/06/04 09:03:59;;;;;;;4.68;1.10;;;;;;;34.33;17.77;102082.78;5220576;28;20474;-91
2023/06/04 09:06:32;;;;;;;2.53;1.10;;;;;;;34.14;16.55;102060.94;5216130;28;20064;-87
2023/06/04 09:09:05;;;;;;;10.10;1.50;;;;;;;34.01;16.06;102063.78;5216526;28;20029;-88
2023/06/04 09:11:46;;;;;;;;;;;;;;;36.36;14.38;102106.59;5215704;28;20033;-87
2023/06/04 09:14:18;;;;;;;1.88;1.05;;;;;;;33.37;14.50;102059.19;5226793;28;19923;-84
2023/06/04 09:16:52;;;;;;;2.63;1.63;;;;;;;34.03;15.03;102099.72;5191339;28;20150;-86
2023/06/04 09:19:23;;;;;;;2.63;1.48;;;;;;;33.90;15.19;102077.03;5172983;28;20110;-85
2023/06/04 09:22:02;;;;;;;4.28;1.73;;;;;;;34.36;14.91;102068.75;5164199;28;20126;-83
2023/06/04 09:24:42;;;;;;;2.22;1.00;;;;;;;34.61;15.79;102056.97;5151437;28;20081;-85
2023/06/04 09:27:17;;;;;;;2.55;1.02;;;;;;;34.12;14.96;102068.53;5165080;28;20035;-88
2023/06/04 09:29:53;;;;;;;2.10;0.90;;;;;;;35.35;14.43;102065.34;5175311;28;20042;-92
2023/06/04 09:32:26;;;;;;;3.33;1.23;;;;;;;35.15;14.89;102106.44;5160311;28;20113;-86
2023/06/04 09:35:14;;;;;;;2.38;0.90;;;;;;;36.20;14.56;102103.47;5171511;28;20022;-84
2023/06/04 09:37:55;;;;;;;2.28;1.00;;;;;;;35.53;14.66;102094.44;5156406;28;20031;-82
2023/06/04 09:40:39;;;;;;;3.00;1.00;;;;;;;35.16;15.23;102081.69;5174762;28;20026;-82
2023/06/04 09:43:10;;;;;;;5.18;1.10;;;;;;;36.02;13.58;102106.31;5154152;28;20132;-86
2023/06/04 09:45:42;;;;;;;6.33;1.10;;;;;;;35.08;13.76;102066.53;5155349;28;20467;-85
2023/06/04 09:48:20;;;;;;;5.60;1.27;;;;;;;35.43;14.68;102095.00;5178784;28;20026;-83
2023/06/04 09:50:52;;;;;;;3.45;1.13;;;;;;;34.81;14.83;102082.31;5172810;28;20482;-81
2023/06/04 09:53:26;;;;;;;1.67;0.83;;;;;;;36.05;13.82;102092.19;5176309;28;20019;-86
2023/06/04 09:56:01;;;;;;;5.82;1.25;;;;;;;35.33;14.31;102054.69;5171773;28;20035;-85
2023/06/04 09:58:33;;;;;;;3.25;1.25;;;;;;;34.64;14.54;102061.13;5172280;28;20225;-80
2023/06/04 10:01:06;;;;;;;2.63;0.90;;;;;;;34.64;15.25;102096.50;5169944;28;20031;-78
2023/06/04 10:03:45;;;;;;;3.15;1.27;;;;;;;33.89;15.43;102056.38;5167508;28;20030;-81
2023/06/04 10:06:18;;;;;;;4.07;1.20;;;;;;;33.64;15.80;102053.56;5152340;28;20035;-81
2023/06/04 10:08:50;;;;;;;;;;;;;;;35.38;15.44;102094.03;5153245;28;20054;-80
2023/06/04 10:11:31;;;;;;;3.83;1.30;;;;;;;33.46;15.75;102087.75;5153074;28;19945;-80
2023/06/04 10:14:19;;;;;;;2.05;0.98;;;;;;;33.19;16.71;102090.56;5151801;28;20022;-80
2023/06/04 10:16:57;;;;;;;1.95;1.08;;;;;;;32.55;16.91;102075.72;5146407;28;20116;-81
2023/06/04 10:19:37;;;;;;;5.78;0.93;;;;;;;32.45;16.94;102084.22;5139743;29;20089;-81
2023/06/04 10:22:23;;;;;;;3.40;1.17;;;;;;;32.07;17.05;102080.28;5140195;29;20045;-81
2023/06/04 10:25:04;;;;;;;4.05;1.15;;;;;;;32.31;17.90;102086.09;5155842;28;20093;-80
2023/06/04 10:27:51;;;;;;;6.93;1.08;;;;;;;31.97;16.96;102096.06;5137846;28;20023;-81
2023/06/04 10:30:46;;;;;;;4.95;0.90;;;;;;;32.08;16.72;102091.97;5154752;28;20045;-79
2023/06/04 10:37:32;;;;;;;2.33;1.10;;;;;;;32.45;16.61;102077.97;5115323;29;20650;-87
2023/06/04 10:40:39;;;;;;;5.72;0.90;;;;;;;32.62;17.09;102091.13;5194404;28;20034;-85
2023/06/04 10:43:34;;;;;;;2.03;0.77;;;;;;;31.82;17.44;102078.13;5101626;29;20036;-83
2023/06/04 10:46:24;;;;;;;2.35;0.90;;;;;;;31.69;17.95;102076.25;5136867;29;20047;-82
2023/06/04 10:48:58;;;;;;;9.00;1.23;;;;;;;31.49;17.83;102035.56;5140046;29;20571;-82
2023/06/04 10:52:02;;;;;;;2.67;1.00;;;;;;;31.74;16.73;102087.28;5181717;28;20042;-82
2023/06/04 10:55:06;;;;;;;5.25;1.10;;;;;;;32.49;17.27;102081.94;5167373;28;20042;-82
2023/06/04 10:57:38;;;;;;;2.15;0.75;;;;;;;31.80;17.97;102069.41;5173961;28;20046;-80
2023/06/04 11:00:10;;;;;;;1.63;0.98;;;;;;;31.30;18.79;102054.22;5184576;28;20042;-81
2023/06/04 11:02:56;;;;;;;5.07;0.93;;;;;;;32.16;18.20;102086.31;5173932;28;20119;-82
2023/06/04 11:05:35;;;;;;;5.07;1.00;;;;;;;32.41;17.76;102074.03;5156479;28;20031;-83
2023/06/04 11:08:11;;;;;;;1.92;0.98;;;;;;;31.71;17.73;102057.09;5171797;28;20022;-84
2023/06/04 11:10:56;;;;;;;4.80;1.10;;;;;;;32.36;17.77;102048.38;5173763;28;20037;-85
2023/06/04 11:13:34;;;;;;;3.58;0.90;;;;;;;31.91;17.11;102037.31;5155781;28;20037;-86
2023/06/04 11:16:20;;;;;;;8.05;1.30;;;;;;;32.32;18.16;102039.00;5154635;28;20059;-85
2023/06/04 11:19:18;;;;;;;2.55;1.25;;;;;;;33.00;16.58;102074.13;5140955;28;20027;-86
2023/06/04 11:21:50;;;;;;;3.50;1.45;;;;;;;32.36;16.87;102034.00;5154508;28;20667;-85
2023/06/04 11:24:21;;;;;;;3.45;1.30;;;;;;;32.84;15.86;102040.16;5154986;28;20024;-87
2023/06/04 11:26:53;;;;;;;2.45;1.00;;;;;;;32.34;15.66;102080.25;5151468;28;20109;-88
2023/06/04 11:29:24;;;;;;;2.58;1.05;;;;;;;32.36;16.52;102072.75;5154404;28;20043;-88
2023/06/04 11:31:57;;;;;;;3.30;1.23;;;;;;;32.51;15.85;102069.00;5136772;28;20019;-87
2023/06/04 11:34:44;;;;;;;1.65;1.05;;;;;;;32.67;16.41;102045.22;5148988;28;20101;-89
2023/06/04 11:37:16;;;;;;;1.52;0.70;;;;;;;32.24;16.40;102025.66;5154459;28;20387;-88
2023/06/04 11:39:47;;;;;;;1.35;0.80;;;;;;;32.29;16.41;102039.41;5153219;28;20028;-88
2023/06/04 11:42:19;;;;;;;1.67;0.93;;;;;;;32.13;16.29;102047.97;5136744;28;20036;-87
2023/06/04 11:45:03;;;;;;;2.88;0.85;;;;;;;32.57;16.42;102027.50;5142585;29;20109;-89
2023/06/04 11:47:35;;;;;;;1.45;0.70;;;;;;;32.04;16.76;102031.09;5137848;29;20114;-88
2023/06/04 11:50:08;;;;;;;1.75;0.68;;;;;;;32.18;15.79;102012.97;5150006;28;20126;-88
2023/06/04 11:52:48;;;;;;;2.80;0.90;;;;;;;32.52;16.51;102040.84;5134396;29;20036;-88
2023/06/04 11:55:23;;;;;;;6.80;0.82;;;;;;;31.92;16.01;102010.03;5135072;29;20058;-87
2023/06/04 11:57:54;;;;;;;5.22;1.00;;;;;;;31.59;16.97;102019.75;5147929;28;20043;-88
2023/06/04 12:00:28;;;;;;;2.50;1.00;;;;;;;32.23;16.10;102030.25;5136001;29;20404;-89
2023/06/04 12:03:00;;;;;;;2.63;0.90;;;;;;;31.83;16.76;102017.53;5135943;28;20440;-89